Time;durP1;ratioP1;P1;durP2;ratioP2;P2;SDS_P1;SDS_P2;PMS_P1;PMS_P2;Temp;Humidity;BMP_temperature;BMP_pressure;BME280_temperature;BME280_humidity;BME280_pressure;Samples;Min_cycle;Max_cycle;Signal;HPM_P1;HPM_P2
2023/07/18 00:00:57;;;;;;;6.40;5.90;;;;;;;-128.00;-1.00;-1.00;97974;295;1002789;-34
2023/07/18 00:03:23;;;;;;;8.20;5.80;;;;;;;-128.00;-1.00;-1.00;97932;296;1004383;-31
2023/07/18 00:05:48;;;;;;;8.30;6.00;;;;;;;-128.00;-1.00;-1.00;97756;295;1005358;-34
2023/07/18 00:08:14;;;;;;;14.90;7.70;;;;;;;-128.00;-1.00;-1.00;97808;295;1003032;-32
2023/07/18 00:10:39;;;;;;;8.10;7.30;;;;;;;-128.00;-1.00;-1.00;97924;296;1002881;-35
2023/07/18 00:13:05;;;;;;;14.90;7.20;;;;;;;-128.00;-1.00;-1.00;98058;295;1004048;-34
2023/07/18 00:15:31;;;;;;;10.40;7.00;;;;;;;-128.00;-1.00;-1.00;97901;295;1005526;-31
2023/07/18 00:17:57;;;;;;;21.30;6.40;;;;;;;-128.00;-1.00;-1.00;97840;295;1003327;-34
2023/07/18 00:20:23;;;;;;;8.50;5.50;;;;;;;-128.00;-1.00;-1.00;97952;295;1003561;-33
2023/07/18 00:22:50;;;;;;;14.50;7.90;;;;;;;-128.00;-1.00;-1.00;97939;295;1002857;-36
2023/07/18 00:25:19;;;;;;;15.90;6.60;;;;;;;-128.00;-1.00;-1.00;97839;295;1004611;-32
2023/07/18 00:27:45;;;;;;;7.80;5.30;;;;;;;-128.00;-1.00;-1.00;97973;295;1002988;-32
2023/07/18 00:30:15;;;;;;;5.20;3.80;;;;;;;-128.00;-1.00;-1.00;97874;284;1004379;-32
2023/07/18 00:32:44;;;;;;;5.70;3.10;;;;;;;-128.00;-1.00;-1.00;97905;295;1003844;-34
2023/07/18 00:35:11;;;;;;;3.60;3.20;;;;;;;-128.00;-1.00;-1.00;97954;295;1004312;-34
2023/07/18 01:17:45;;;;;;;2.50;1.40;;;;;;;16.71;83.06;99609.34;101155;295;557565;-34
2023/07/18 01:20:22;;;;;;;2.90;1.40;;;;;;;16.80;83.20;99610.27;100900;296;540999;-30
2023/07/18 01:22:49;;;;;;;1.90;1.00;;;;;;;16.76;84.21;99608.25;101142;296;22577;-39
2023/07/18 01:25:16;;;;;;;4.20;1.70;;;;;;;16.73;83.88;99611.30;101418;296;22573;-35
2023/07/18 01:27:43;;;;;;;2.70;1.20;;;;;;;16.73;80.50;99617.80;101452;296;22592;-30
2023/07/18 01:30:09;;;;;;;4.40;1.50;;;;;;;16.81;80.78;99615.66;101440;296;22624;-30
2023/07/18 01:32:35;;;;;;;2.10;1.00;;;;;;;16.84;80.89;99610.95;101291;296;25296;-34
2023/07/18 01:35:05;;;;;;;2.30;1.40;;;;;;;16.88;81.82;99609.91;101287;288;23121;-34
2023/07/18 01:37:32;;;;;;;2.70;1.10;;;;;;;16.89;81.01;99610.21;101429;296;22602;-31
2023/07/18 01:39:59;;;;;;;2.60;1.50;;;;;;;16.89;80.47;99613.26;101464;296;22681;-30
2023/07/18 01:42:25;;;;;;;2.90;1.70;;;;;;;16.88;79.39;99613.02;101259;296;22579;-29
2023/07/18 01:44:50;;;;;;;0.80;0.70;;;;;;;16.91;80.11;99611.94;101484;296;22542;-34
2023/07/18 01:47:16;;;;;;;2.00;0.70;;;;;;;16.89;79.57;99609.33;101259;284;24234;-29
2023/07/18 01:49:42;;;;;;;2.00;0.80;;;;;;;16.86;80.10;99618.27;101266;296;22669;-34
2023/07/18 01:52:07;;;;;;;3.50;1.70;;;;;;;16.82;79.77;99623.70;101353;296;22990;-33
2023/07/18 01:54:33;;;;;;;3.80;1.10;;;;;;;16.77;80.52;99627.44;101413;296;22886;-30
2023/07/18 01:56:58;;;;;;;3.40;1.50;;;;;;;16.68;80.07;99629.17;101257;288;22882;-34
2023/07/18 01:59:24;;;;;;;2.20;1.30;;;;;;;16.60;80.44;99634.88;101396;296;22752;-36
2023/07/18 02:01:51;;;;;;;3.40;1.20;;;;;;;16.58;80.72;99637.80;101310;296;22941;-29
2023/07/18 02:04:18;;;;;;;1.90;1.10;;;;;;;16.52;80.88;99634.66;101327;296;22750;-32
2023/07/18 02:06:43;;;;;;;1.80;0.90;;;;;;;16.42;81.08;99636.47;101411;296;22573;-31
2023/07/18 02:09:10;;;;;;;2.60;1.20;;;;;;;16.32;81.47;99639.97;101332;297;22927;-34
2023/07/18 02:11:35;;;;;;;2.00;1.40;;;;;;;16.23;81.83;99641.00;101398;288;22601;-34
2023/07/18 02:14:03;;;;;;;11.20;1.10;;;;;;;16.16;82.17;99644.76;101418;296;22674;-34
2023/07/18 02:16:32;;;;;;;3.40;1.00;;;;;;;16.11;82.25;99646.35;101445;295;22577;-34
2023/07/18 02:19:00;;;;;;;2.90;1.10;;;;;;;15.99;82.71;99645.67;101332;296;23223;-29
2023/07/18 02:21:25;;;;;;;2.50;1.00;;;;;;;15.86;83.46;99650.10;101480;296;22914;-37
2023/07/18 02:23:51;;;;;;;3.20;1.50;;;;;;;15.76;83.80;99649.91;101358;284;22989;-29
2023/07/18 02:26:17;;;;;;;12.40;1.80;;;;;;;15.66;84.53;99652.29;101254;296;22674;-29
2023/07/18 02:28:42;;;;;;;7.50;1.70;;;;;;;15.60;85.13;99661.20;101259;285;24146;-34
2023/07/18 02:31:08;;;;;;;2.10;1.20;;;;;;;15.57;85.78;99662.77;101270;296;22994;-30
2023/07/18 02:33:33;;;;;;;2.90;1.40;;;;;;;15.54;86.06;99662.67;101359;296;22581;-29
2023/07/18 02:35:59;;;;;;;3.40;1.30;;;;;;;15.53;86.32;99663.39;101284;296;22595;-30
2023/07/18 02:38:25;;;;;;;1.70;1.50;;;;;;;15.52;86.89;99668.14;101307;296;22767;-29
2023/07/18 02:40:51;;;;;;;4.10;1.40;;;;;;;15.52;87.44;99675.61;101356;296;22886;-33
2023/07/18 02:43:17;;;;;;;1.90;0.90;;;;;;;15.52;87.74;99676.19;101419;296;24264;-34
2023/07/18 02:45:43;;;;;;;2.80;1.20;;;;;;;15.50;88.24;99681.27;101384;296;23124;-32
2023/07/18 02:48:09;;;;;;;1.70;1.20;;;;;;;15.49;88.94;99687.09;101273;297;25267;-29
2023/07/18 02:50:35;;;;;;;2.30;1.40;;;;;;;15.47;89.59;99693.89;101324;295;24098;-32
2023/07/18 02:53:00;;;;;;;3.50;1.40;;;;;;;15.47;89.92;99690.98;101334;295;22915;-29
2023/07/18 02:55:27;;;;;;;2.00;1.40;;;;;;;15.44;90.03;99692.13;101376;296;22597;-34
2023/07/18 02:57:53;;;;;;;2.70;1.00;;;;;;;15.39;90.38;99696.61;101423;295;22882;-34
2023/07/18 03:00:25;;;;;;;6.30;1.40;;;;;;;15.30;90.71;99696.40;101308;295;24146;-33
2023/07/18 03:02:51;;;;;;;6.30;2.10;;;;;;;15.24;90.98;99697.86;101229;296;22575;-32
2023/07/18 03:05:18;;;;;;;1.30;0.70;;;;;;;15.19;91.36;99700.77;101397;295;23010;-30
2023/07/18 03:07:44;;;;;;;2.10;1.10;;;;;;;15.11;91.47;99707.77;101369;288;22582;-34
2023/07/18 03:10:10;;;;;;;3.10;1.40;;;;;;;15.02;91.58;99709.84;101286;295;22754;-34
2023/07/18 03:12:36;;;;;;;3.40;1.30;;;;;;;14.94;91.84;99720.40;101441;296;22578;-34
2023/07/18 03:15:02;;;;;;;7.60;1.50;;;;;;;14.88;92.09;99724.64;101286;295;22988;-30
2023/07/18 03:17:27;;;;;;;5.30;1.70;;;;;;;14.78;92.83;99725.77;101196;295;22779;-30
2023/07/18 03:19:53;;;;;;;9.30;2.40;;;;;;;14.73;93.32;99730.05;101354;286;22612;-40
2023/07/18 03:22:20;;;;;;;2.30;1.10;;;;;;;14.66;93.23;99738.27;101296;296;25858;-33
2023/07/18 03:24:47;;;;;;;4.00;1.50;;;;;;;14.61;94.10;99743.91;101341;296;24141;-31
2023/07/18 03:27:13;;;;;;;4.00;2.10;;;;;;;14.55;94.68;99745.34;101381;288;22570;-30
2023/07/18 03:29:38;;;;;;;1.70;1.20;;;;;;;14.57;95.07;99746.58;101426;295;22663;-35
2023/07/18 03:32:05;;;;;;;3.20;1.80;;;;;;;14.79;94.81;99745.33;101232;284;24231;-33
2023/07/18 03:34:31;;;;;;;4.40;1.30;;;;;;;15.04;93.86;99748.89;101489;295;24143;-35
2023/07/18 03:36:57;;;;;;;1.50;0.80;;;;;;;15.21;93.28;99749.88;101280;296;24139;-35
2023/07/18 03:39:22;;;;;;;2.30;1.10;;;;;;;15.32;92.82;99752.21;101224;295;22672;-30
2023/07/18 03:41:48;;;;;;;1.70;1.40;;;;;;;15.47;92.04;99757.73;101307;295;24263;-40
2023/07/18 03:44:13;;;;;;;3.40;1.40;;;;;;;15.55;91.48;99754.88;101212;295;22899;-34
2023/07/18 03:46:39;;;;;;;1.40;0.70;;;;;;;15.63;91.20;99754.65;101222;295;22852;-34
2023/07/18 03:49:04;;;;;;;2.20;1.10;;;;;;;15.78;90.76;99758.58;101383;295;22609;-30
2023/07/18 03:51:30;;;;;;;4.50;1.40;;;;;;;15.88;90.11;99764.38;101394;296;22673;-34
2023/07/18 03:53:56;;;;;;;19.10;1.20;;;;;;;16.02;89.71;99766.63;101289;296;24327;-30
2023/07/18 03:56:22;;;;;;;1.70;0.90;;;;;;;16.13;89.42;99772.73;101232;292;23038;-34
2023/07/18 03:58:49;;;;;;;1.60;1.00;;;;;;;16.24;88.67;99773.34;101205;295;22890;-34
2023/07/18 04:01:15;;;;;;;4.10;1.70;;;;;;;16.37;87.94;99780.41;101264;296;22581;-29
2023/07/18 04:03:41;;;;;;;2.30;1.70;;;;;;;16.49;87.44;99781.98;101206;284;22575;-34
2023/07/18 04:06:07;;;;;;;1.50;0.70;;;;;;;16.63;87.12;99779.00;101271;296;22649;-32
2023/07/18 04:08:33;;;;;;;4.10;1.40;;;;;;;16.80;86.48;99779.73;101302;296;22883;-32
2023/07/18 04:10:59;;;;;;;2.70;0.90;;;;;;;16.84;85.60;99783.73;101250;296;22578;-30
2023/07/18 04:13:25;;;;;;;2.20;0.90;;;;;;;17.08;85.65;99784.41;101406;297;24378;-35
2023/07/18 04:15:53;;;;;;;2.40;1.40;;;;;;;17.22;85.44;99786.11;101442;295;22883;-31
2023/07/18 04:18:19;;;;;;;1.90;1.00;;;;;;;17.37;85.01;99791.61;101284;295;22611;-35
2023/07/18 04:20:44;;;;;;;5.60;0.70;;;;;;;17.49;84.27;99797.23;101429;296;22584;-30
2023/07/18 04:23:10;;;;;;;1.10;0.70;;;;;;;17.49;83.62;99801.58;101313;295;23178;-35
2023/07/18 04:25:57;;;;;;;3.90;1.20;;;;;;;17.50;83.40;99802.52;101363;296;24334;-34
2023/07/18 04:28:23;;;;;;;1.70;1.20;;;;;;;17.63;83.32;99807.27;101356;295;23150;-37
2023/07/18 04:30:49;;;;;;;2.80;1.30;;;;;;;17.70;81.86;99814.89;101350;295;22590;-31
2023/07/18 04:33:15;;;;;;;2.20;1.00;;;;;;;17.44;82.17;99819.16;101534;295;24145;-30
2023/07/18 04:35:41;;;;;;;4.30;1.50;;;;;;;17.57;81.85;99825.77;101405;296;23010;-38
2023/07/18 04:38:09;;;;;;;1.70;0.90;;;;;;;17.50;81.23;99831.35;101553;296;22571;-32
2023/07/18 04:40:35;;;;;;;2.20;0.50;;;;;;;17.33;81.63;99836.08;101266;297;24261;-34
2023/07/18 04:43:01;;;;;;;3.20;0.90;;;;;;;17.39;80.45;99833.47;101297;296;24091;-35
2023/07/18 04:45:26;;;;;;;2.00;1.30;;;;;;;17.22;80.69;99841.42;101524;295;24117;-34
2023/07/18 04:47:52;;;;;;;2.00;1.00;;;;;;;17.08;81.97;99842.40;101363;296;22891;-34
2023/07/18 04:50:18;;;;;;;1.70;1.10;;;;;;;16.97;82.20;99844.89;101560;296;22576;-30
2023/07/18 04:52:43;;;;;;;14.60;1.50;;;;;;;17.06;81.50;99846.52;101491;296;22668;-30
2023/07/18 04:55:10;;;;;;;2.50;1.40;;;;;;;17.13;81.12;99851.05;101279;286;22740;-34
2023/07/18 04:57:36;;;;;;;3.20;1.30;;;;;;;17.13;81.30;99850.73;101308;285;24215;-32
2023/07/18 05:00:03;;;;;;;8.20;1.00;;;;;;;17.50;80.03;99848.20;101455;284;22699;-38
2023/07/18 05:02:29;;;;;;;2.20;1.50;;;;;;;17.80;78.61;99852.87;101560;296;22569;-35
2023/07/18 05:04:56;;;;;;;1.90;0.90;;;;;;;17.79;77.15;99859.66;101450;296;22577;-30
2023/07/18 05:07:22;;;;;;;1.90;1.00;;;;;;;18.04;77.08;99857.55;101564;296;22673;-35
2023/07/18 05:09:48;;;;;;;4.30;0.80;;;;;;;18.24;76.00;99859.06;101412;296;22584;-31
2023/07/18 05:12:13;;;;;;;1.30;0.90;;;;;;;18.35;75.27;99859.32;101421;295;22522;-34
2023/07/18 05:14:39;;;;;;;2.00;1.20;;;;;;;18.22;74.88;99864.02;101524;296;24320;-34
2023/07/18 05:17:05;;;;;;;3.30;0.90;;;;;;;18.49;75.13;99860.53;101507;296;22780;-34
2023/07/18 05:19:31;;;;;;;2.20;0.90;;;;;;;18.54;74.77;99861.90;101501;295;24145;-36
2023/07/18 05:21:56;;;;;;;2.10;1.30;;;;;;;18.69;74.01;99865.88;101549;284;24149;-35
2023/07/18 05:24:22;;;;;;;2.80;1.00;;;;;;;18.68;74.38;99866.86;101559;296;23011;-31
2023/07/18 05:26:48;;;;;;;1.10;0.70;;;;;;;18.91;73.42;99868.61;101398;296;24241;-36
2023/07/18 05:29:13;;;;;;;9.80;1.10;;;;;;;18.97;72.96;99869.98;101606;284;22667;-36
2023/07/18 05:31:39;;;;;;;2.20;1.50;;;;;;;19.05;71.49;99867.75;101565;296;24144;-35
2023/07/18 05:34:05;;;;;;;1.70;1.20;;;;;;;18.89;72.07;99873.08;101460;296;23010;-34
2023/07/18 05:36:31;;;;;;;3.80;1.10;;;;;;;19.08;71.22;99874.41;101582;296;22580;-35
2023/07/18 05:38:57;;;;;;;1.70;0.80;;;;;;;19.11;70.23;99876.88;101343;296;22579;-35
2023/07/18 05:41:22;;;;;;;1.60;0.80;;;;;;;19.40;68.48;99882.19;101366;296;24145;-36
2023/07/18 05:43:48;;;;;;;16.90;1.40;;;;;;;19.38;67.74;99886.45;101388;296;24184;-35
2023/07/18 05:46:44;;;;;;;3.70;1.10;;;;;;;19.49;68.45;99885.59;101543;296;22571;-31
2023/07/18 05:49:09;;;;;;;5.30;1.50;;;;;;;19.51;67.05;99890.53;101301;296;22920;-35
2023/07/18 05:51:35;;;;;;;3.00;1.10;;;;;;;19.52;66.86;99896.20;101381;285;22830;-33
2023/07/18 05:54:04;;;;;;;2.20;1.10;;;;;;;19.67;66.58;99894.41;101361;297;22693;-32
2023/07/18 05:56:31;;;;;;;1.60;0.80;;;;;;;19.77;66.31;99898.66;101446;296;23011;-36
2023/07/18 05:58:56;;;;;;;2.10;0.90;;;;;;;19.88;66.16;99898.91;101207;296;22573;-32
2023/07/18 06:01:22;;;;;;;3.20;0.60;;;;;;;19.91;65.78;99897.77;101301;296;22575;-35
2023/07/18 06:03:48;;;;;;;2.80;0.80;;;;;;;20.04;65.68;99900.34;101222;297;23010;-35
2023/07/18 06:06:15;;;;;;;10.40;1.40;;;;;;;20.33;64.47;99901.53;101381;296;22706;-38
2023/07/18 06:08:41;;;;;;;3.80;0.90;;;;;;;20.39;65.11;99903.75;101500;296;22812;-31
2023/07/18 06:11:07;;;;;;;6.20;0.90;;;;;;;20.52;63.33;99907.02;101445;296;22587;-36
2023/07/18 06:13:32;;;;;;;3.70;0.50;;;;;;;20.45;62.52;99910.36;101188;296;22883;-35
2023/07/18 06:15:58;;;;;;;1.10;0.60;;;;;;;20.63;63.11;99909.34;101302;284;24064;-30
2023/07/18 06:18:24;;;;;;;1.20;0.40;;;;;;;20.89;63.39;99899.92;101301;296;22611;-31
2023/07/18 06:20:50;;;;;;;1.10;0.60;;;;;;;21.04;60.48;99899.05;101394;296;22660;-33
2023/07/18 06:23:15;;;;;;;7.10;1.10;;;;;;;20.88;59.75;99900.41;101433;284;22881;-34
2023/07/18 06:25:42;;;;;;;1.30;0.60;;;;;;;20.76;59.79;99904.01;101326;297;22704;-31
2023/07/18 06:28:08;;;;;;;0.90;0.40;;;;;;;20.91;58.79;99897.84;101339;295;24226;-31
2023/07/18 06:30:33;;;;;;;0.80;0.40;;;;;;;21.08;57.08;99897.28;101472;296;22774;-34
2023/07/18 06:32:59;;;;;;;2.00;0.70;;;;;;;21.00;56.09;99898.11;101218;295;22573;-31
2023/07/18 06:35:25;;;;;;;1.90;0.90;;;;;;;20.98;57.11;99898.15;101241;296;24282;-33
2023/07/18 06:37:51;;;;;;;2.20;0.60;;;;;;;21.05;56.57;99897.52;101342;296;22886;-33
2023/07/18 06:40:17;;;;;;;2.40;0.60;;;;;;;21.30;54.28;99892.99;101273;288;22916;-35
2023/07/18 06:42:43;;;;;;;3.10;0.40;;;;;;;21.01;54.44;99898.56;101327;295;23011;-31
2023/07/18 06:45:09;;;;;;;2.50;0.70;;;;;;;20.98;53.97;99898.69;101437;295;22572;-34
2023/07/18 06:47:35;;;;;;;1.10;0.60;;;;;;;20.98;53.97;99898.69;101339;297;22528;-31
2023/07/18 06:50:01;;;;;;;1.50;0.60;;;;;;;20.98;53.97;99898.69;101273;295;24109;-31
2023/07/18 06:52:26;;;;;;;1.40;0.60;;;;;;;21.03;55.07;99901.15;101211;288;24153;-35
2023/07/18 06:54:54;;;;;;;0.90;0.50;;;;;;;21.33;54.08;99909.61;101250;295;24500;-31
2023/07/18 06:57:19;;;;;;;3.50;0.90;;;;;;;21.34;53.11;99904.67;101419;288;23010;-30
2023/07/18 06:59:45;;;;;;;1.50;0.70;;;;;;;21.41;53.04;99903.12;101325;296;24140;-35
2023/07/18 07:02:11;;;;;;;0.90;0.50;;;;;;;21.51;53.32;99904.77;101307;295;22572;-35
2023/07/18 07:04:39;;;;;;;1.50;0.50;;;;;;;21.66;53.24;99906.31;101287;295;22885;-35
2023/07/18 07:07:08;;;;;;;0.30;0.20;;;;;;;21.61;52.67;99910.19;101396;295;22731;-31
2023/07/18 07:09:34;;;;;;;0.90;0.50;;;;;;;21.61;52.48;99904.49;101314;295;22583;-32
2023/07/18 07:12:00;;;;;;;3.10;1.10;;;;;;;21.84;51.38;99902.23;101346;295;22725;-30
2023/07/18 07:14:26;;;;;;;0.90;0.50;;;;;;;21.39;51.60;99899.48;101332;295;22576;-34
2023/07/18 07:16:53;;;;;;;1.80;0.90;;;;;;;21.23;53.17;99900.92;101413;295;23002;-35
2023/07/18 07:19:18;;;;;;;2.60;1.20;;;;;;;21.19;54.35;99898.84;101435;295;25351;-35
2023/07/18 07:21:45;;;;;;;4.80;0.60;;;;;;;21.53;53.73;99902.23;101341;288;24242;-35
2023/07/18 07:24:11;;;;;;;0.50;0.40;;;;;;;21.76;52.32;99895.09;101227;295;22738;-35
2023/07/18 07:26:37;;;;;;;2.70;0.70;;;;;;;21.79;50.98;99896.39;101363;295;24143;-34
2023/07/18 07:29:04;;;;;;;0.30;0.30;;;;;;;21.90;51.27;99898.83;101329;295;22579;-35
2023/07/18 07:31:31;;;;;;;1.20;0.60;;;;;;;22.37;48.76;99895.15;101252;295;24216;-33
2023/07/18 07:33:57;;;;;;;3.00;1.00;;;;;;;22.18;47.11;99897.79;101392;295;22576;-37
2023/07/18 07:36:22;;;;;;;0.80;0.50;;;;;;;22.05;47.73;99899.63;101458;295;22666;-29
2023/07/18 07:38:49;;;;;;;1.90;0.60;;;;;;;21.72;48.49;99897.72;101313;295;22666;-36
2023/07/18 07:41:15;;;;;;;1.50;0.70;;;;;;;21.82;49.29;99897.61;101306;295;22592;-34
2023/07/18 07:43:40;;;;;;;1.30;0.50;;;;;;;22.09;48.25;99894.48;101242;296;22509;-35
2023/07/18 07:46:06;;;;;;;1.30;0.40;;;;;;;22.18;47.52;99895.94;101395;295;23123;-31
2023/07/18 07:48:31;;;;;;;5.60;0.40;;;;;;;22.58;47.62;99893.18;101386;295;22887;-31
2023/07/18 07:50:58;;;;;;;3.50;0.60;;;;;;;22.83;45.59;99889.83;101354;295;22577;-32
2023/07/18 07:53:24;;;;;;;7.70;0.20;;;;;;;22.86;43.91;99886.66;101283;284;24359;-35
2023/07/18 07:55:49;;;;;;;0.60;0.40;;;;;;;22.69;43.45;99885.38;101301;295;22579;-35
2023/07/18 07:58:15;;;;;;;0.60;0.30;;;;;;;22.38;44.69;99884.99;101369;295;24124;-32
2023/07/18 08:00:41;;;;;;;0.70;0.40;;;;;;;22.35;43.69;99884.48;101318;295;22587;-35
2023/07/18 08:03:07;;;;;;;1.50;0.80;;;;;;;22.30;43.64;99884.30;101335;296;24190;-35
2023/07/18 08:05:32;;;;;;;1.00;0.50;;;;;;;22.00;45.03;99889.63;101311;295;22572;-31
2023/07/18 08:07:58;;;;;;;0.80;0.60;;;;;;;22.29;46.00;99885.45;101246;295;22594;-30
2023/07/18 08:10:24;;;;;;;1.70;0.70;;;;;;;22.94;43.24;99887.71;101419;294;24263;-31
2023/07/18 08:12:50;;;;;;;0.90;0.30;;;;;;;22.81;42.51;99887.85;101336;295;24067;-31
2023/07/18 08:15:16;;;;;;;1.70;0.40;;;;;;;22.49;43.40;99889.73;101351;295;22576;-29
2023/07/18 08:17:42;;;;;;;1.70;0.60;;;;;;;22.53;43.89;99891.34;101335;295;22888;-31
2023/07/18 08:20:08;;;;;;;0.70;0.30;;;;;;;22.90;43.32;99889.60;101284;284;22669;-34
2023/07/18 08:22:34;;;;;;;1.30;0.60;;;;;;;23.20;41.74;99889.11;101320;295;22881;-35
2023/07/18 08:25:00;;;;;;;0.40;0.20;;;;;;;23.35;41.64;99890.04;101304;295;22734;-35
2023/07/18 08:27:28;;;;;;;2.00;0.70;;;;;;;23.71;40.62;99885.15;101506;295;23008;-35
2023/07/18 08:29:53;;;;;;;1.60;0.40;;;;;;;23.46;40.52;99890.67;101546;295;22902;-35
2023/07/18 08:32:19;;;;;;;0.80;0.20;;;;;;;23.13;40.47;99890.98;101395;299;22773;-35
2023/07/18 08:34:45;;;;;;;3.50;0.60;;;;;;;23.00;41.75;99885.83;101222;295;24192;-31
2023/07/18 08:37:10;;;;;;;1.90;0.70;;;;;;;23.23;41.99;99886.48;101344;295;22576;-31
2023/07/18 08:39:39;;;;;;;1.40;0.30;;;;;;;23.25;40.87;99890.83;101384;286;23010;-31
2023/07/18 08:42:06;;;;;;;0.70;0.50;;;;;;;23.50;40.87;99883.34;101286;295;22574;-34
2023/07/18 08:44:33;;;;;;;2.90;0.80;;;;;;;23.63;41.10;99886.52;101342;295;22582;-32
2023/07/18 08:47:00;;;;;;;0.50;0.40;;;;;;;23.89;40.33;99882.67;101228;295;22591;-36
2023/07/18 08:49:28;;;;;;;0.80;0.30;;;;;;;23.55;41.15;99883.80;101487;294;22575;-33
2023/07/18 08:51:54;;;;;;;0.60;0.20;;;;;;;24.01;40.89;99880.17;101318;296;24143;-30
2023/07/18 08:54:20;;;;;;;3.00;0.80;;;;;;;24.10;40.72;99880.00;101404;295;22895;-35
2023/07/18 08:56:45;;;;;;;1.60;0.70;;;;;;;23.92;42.60;99877.27;101387;295;24116;-34
2023/07/18 08:59:11;;;;;;;1.30;0.60;;;;;;;24.30;42.80;99875.17;101504;295;23121;-35
2023/07/18 09:01:48;;;;;;;1.00;0.70;;;;;;;24.65;39.63;99873.37;101129;295;22725;-30
2023/07/18 09:04:14;;;;;;;0.70;0.50;;;;;;;23.97;40.81;99873.48;101076;295;25804;-30
2023/07/18 09:06:49;;;;;;;0.60;0.50;;;;;;;23.98;40.40;99873.25;101462;295;22582;-34
2023/07/18 09:09:20;;;;;;;7.90;0.60;;;;;;;23.84;40.75;99878.66;101354;295;22594;-32
2023/07/18 09:11:57;;;;;;;0.90;0.60;;;;;;;23.92;41.11;99871.65;101341;294;22575;-35
2023/07/18 09:14:24;;;;;;;0.50;0.20;;;;;;;24.39;39.87;99869.25;101301;295;22577;-36
2023/07/18 09:16:52;;;;;;;0.90;0.40;;;;;;;24.41;39.25;99872.59;101337;295;22611;-35
2023/07/18 09:19:17;;;;;;;1.10;0.60;;;;;;;24.33;38.63;99871.23;101394;295;22569;-38
2023/07/18 09:21:43;;;;;;;0.60;0.40;;;;;;;24.05;39.43;99870.07;100898;296;623460;-38
2023/07/18 09:24:09;;;;;;;0.60;0.50;;;;;;;24.41;38.94;99860.17;101318;295;22788;-31
2023/07/18 09:26:34;;;;;;;0.60;0.20;;;;;;;24.55;38.31;99856.55;101242;294;22739;-37
2023/07/18 09:29:01;;;;;;;0.50;0.30;;;;;;;24.75;37.08;99852.27;101099;295;22576;-30
2023/07/18 09:31:27;;;;;;;0.60;0.30;;;;;;;24.38;37.47;99852.92;101036;295;23227;-31
2023/07/18 09:33:54;;;;;;;0.70;0.40;;;;;;;24.47;37.65;99852.77;100373;295;1003371;-35
2023/07/18 09:36:21;;;;;;;0.70;0.50;;;;;;;24.83;36.82;99849.33;101257;295;22598;-35
2023/07/18 09:38:47;;;;;;;0.60;0.40;;;;;;;25.24;35.50;99849.89;101136;295;24077;-31
2023/07/18 09:41:17;;;;;;;3.70;0.90;;;;;;;24.74;35.96;99845.55;101118;295;25784;-35
2023/07/18 09:43:43;;;;;;;2.50;0.40;;;;;;;24.21;38.05;99846.80;101211;295;24099;-37
2023/07/18 09:46:11;;;;;;;0.50;0.30;;;;;;;24.53;38.04;99842.77;101286;295;24063;-34
2023/07/18 09:48:38;;;;;;;0.10;0.10;;;;;;;24.99;36.65;99837.79;101311;295;22611;-31
2023/07/18 09:51:03;;;;;;;1.00;0.50;;;;;;;25.32;34.27;99832.33;101107;295;25328;-31
2023/07/18 09:53:29;;;;;;;0.80;0.60;;;;;;;24.60;35.60;99833.35;101095;295;24415;-37
2023/07/18 09:55:55;;;;;;;0.80;0.50;;;;;;;24.92;35.98;99830.02;101219;295;22577;-32
2023/07/18 09:58:21;;;;;;;2.60;0.80;;;;;;;24.88;35.25;99826.35;101033;283;22886;-32
2023/07/18 10:00:47;;;;;;;2.30;0.90;;;;;;;24.34;37.33;99825.48;101106;285;24243;-35
2023/07/18 10:03:13;;;;;;;4.10;0.60;;;;;;;24.72;37.15;99819.36;101221;295;22606;-32
2023/07/18 10:05:38;;;;;;;0.40;0.30;;;;;;;24.71;37.96;99819.75;101063;295;25918;-31
2023/07/18 10:08:05;;;;;;;0.80;0.40;;;;;;;24.96;36.80;99813.39;101142;295;22580;-31
2023/07/18 10:10:31;;;;;;;0.90;0.30;;;;;;;25.17;35.70;99812.60;101080;295;23153;-30
2023/07/18 10:12:59;;;;;;;0.70;0.50;;;;;;;24.83;37.42;99817.80;101074;295;24189;-35
2023/07/18 10:15:25;;;;;;;0.60;0.40;;;;;;;24.61;37.68;99816.55;101268;295;25774;-32
2023/07/18 10:17:51;;;;;;;1.30;0.60;;;;;;;24.81;37.01;99813.96;101121;295;22579;-30
2023/07/18 10:20:30;;;;;;;0.60;0.50;;;;;;;24.58;37.84;99808.33;101015;295;22581;-37
2023/07/18 10:22:58;;;;;;;0.70;0.40;;;;;;;25.19;37.70;99805.80;101084;295;22577;-33
2023/07/18 10:25:26;;;;;;;1.20;0.80;;;;;;;25.56;35.72;99800.66;101101;295;25338;-35
2023/07/18 10:27:52;;;;;;;0.60;0.50;;;;;;;25.40;35.79;99806.75;101146;295;22593;-35
2023/07/18 10:30:19;;;;;;;0.70;0.60;;;;;;;25.57;36.31;99805.16;101216;295;22880;-35
2023/07/18 10:32:52;;;;;;;1.70;0.60;;;;;;;26.14;35.51;99795.14;101124;295;22581;-35
2023/07/18 10:35:19;;;;;;;2.30;0.70;;;;;;;26.26;33.65;99794.14;101321;295;22882;-35
2023/07/18 10:37:51;;;;;;;0.80;0.60;;;;;;;26.16;34.12;99788.52;101150;295;24300;-32
2023/07/18 10:40:30;;;;;;;2.70;0.30;;;;;;;26.24;34.66;99787.30;101203;295;26256;-31
2023/07/18 10:42:56;;;;;;;1.00;0.40;;;;;;;26.48;35.10;99779.70;101115;295;22662;-32
2023/07/18 10:45:22;;;;;;;0.80;0.40;;;;;;;26.54;34.43;99776.73;101013;295;26988;-31
2023/07/18 10:47:48;;;;;;;1.50;0.40;;;;;;;26.49;33.73;99782.34;101030;295;25685;-31
2023/07/18 10:50:13;;;;;;;1.90;0.80;;;;;;;26.12;34.47;99783.59;101144;285;22673;-38
2023/07/18 10:52:40;;;;;;;0.60;0.50;;;;;;;26.58;34.42;99773.14;101096;295;25478;-36
2023/07/18 10:55:06;;;;;;;0.40;0.30;;;;;;;26.64;34.23;99769.67;101115;295;26954;-32
2023/07/18 10:57:33;;;;;;;0.90;0.70;;;;;;;26.64;33.88;99764.96;101136;295;25742;-32
2023/07/18 11:00:00;;;;;;;0.30;0.20;;;;;;;26.35;34.39;99758.80;101146;295;25294;-35
2023/07/18 11:02:26;;;;;;;0.50;0.40;;;;;;;26.55;34.27;99755.34;101216;283;24360;-31
2023/07/18 11:04:53;;;;;;;1.20;0.50;;;;;;;26.25;34.13;99753.73;101223;295;24087;-32
2023/07/18 11:07:31;;;;;;;1.70;0.50;;;;;;;25.69;35.71;99747.58;101085;287;24259;-35
2023/07/18 11:09:57;;;;;;;1.30;0.90;;;;;;;26.42;34.23;99736.20;101059;295;25348;-35
2023/07/18 11:12:22;;;;;;;1.90;0.80;;;;;;;26.71;33.29;99731.46;100935;295;22569;-31
2023/07/18 11:14:48;;;;;;;1.20;0.70;;;;;;;26.56;33.68;99718.14;101018;295;22593;-35
2023/07/18 11:17:17;;;;;;;1.90;0.60;;;;;;;26.79;34.00;99732.02;101109;285;24138;-33
2023/07/18 11:19:43;;;;;;;0.80;0.50;;;;;;;26.87;34.36;99733.73;101147;295;24166;-35
2023/07/18 11:22:10;;;;;;;1.70;0.70;;;;;;;27.51;32.46;99733.30;101096;295;24039;-35
2023/07/18 11:24:36;;;;;;;1.40;0.60;;;;;;;26.95;32.36;99734.05;101100;295;22883;-35
2023/07/18 11:27:15;;;;;;;0.90;0.50;;;;;;;27.11;32.32;99730.20;101224;295;22673;-35
2023/07/18 11:29:53;;;;;;;1.90;0.80;;;;;;;27.29;30.78;99729.39;101244;295;22573;-36
2023/07/18 11:32:34;;;;;;;1.00;0.60;;;;;;;26.30;32.71;99719.70;101202;295;22631;-32
2023/07/18 11:35:00;;;;;;;2.50;0.50;;;;;;;26.22;32.56;99720.11;101275;295;23215;-35
2023/07/18 11:37:26;;;;;;;1.60;0.50;;;;;;;26.60;32.84;99720.30;101090;294;22576;-31
2023/07/18 11:39:55;;;;;;;1.00;0.50;;;;;;;26.97;32.32;99721.89;101333;283;22668;-31
2023/07/18 11:42:21;;;;;;;0.60;0.60;;;;;;;27.43;31.37;99720.79;101096;295;26976;-31
2023/07/18 11:44:47;;;;;;;1.40;0.60;;;;;;;27.10;30.63;99719.36;101044;295;22580;-31
2023/07/18 11:47:13;;;;;;;1.00;0.60;;;;;;;26.89;30.71;99718.38;101113;295;22990;-35
2023/07/18 11:49:39;;;;;;;1.40;0.30;;;;;;;26.74;31.23;99700.73;101125;295;24286;-35
2023/07/18 11:52:06;;;;;;;1.00;0.60;;;;;;;27.48;30.28;99708.27;101099;295;22928;-33
2023/07/18 11:54:35;;;;;;;1.70;0.40;;;;;;;27.38;29.87;99709.27;101168;295;22828;-31
2023/07/18 11:57:03;;;;;;;1.30;0.50;;;;;;;26.84;30.87;99702.08;101164;284;25404;-31
2023/07/18 11:59:30;;;;;;;1.40;0.60;;;;;;;26.95;30.62;99699.27;101209;295;24046;-31
2023/07/18 12:01:56;;;;;;;1.30;0.50;;;;;;;26.97;30.42;99700.91;101033;295;22574;-35
2023/07/18 12:04:21;;;;;;;1.40;0.50;;;;;;;26.91;30.56;99693.48;101140;295;22661;-35
2023/07/18 12:06:47;;;;;;;0.90;0.50;;;;;;;27.44;30.23;99684.45;101042;283;24133;-31
2023/07/18 12:09:14;;;;;;;0.80;0.50;;;;;;;27.07;29.89;99684.92;101190;295;25935;-35
2023/07/18 12:11:40;;;;;;;0.90;0.60;;;;;;;27.01;29.60;99680.66;101070;294;22595;-31